Time;durP1;ratioP1;P1;durP2;ratioP2;P2;SDS_P1;SDS_P2;PMS_P1;PMS_P2;Temp;Humidity;BMP_temperature;BMP_pressure;BME280_temperature;BME280_humidity;BME280_pressure;Samples;Min_cycle;Max_cycle;Signal;HPM_P1;HPM_P2
2022/10/06 00:00:33;;;;;;;7.50;2.17;;;;;;;13.90;78.86;102084.19;6215454;23;20088;-66
2022/10/06 00:02:58;;;;;;;8.30;2.05;;;;;;;13.89;78.86;102082.41;6215673;23;20016;-67
2022/10/06 00:05:23;;;;;;;7.50;1.92;;;;;;;13.90;78.47;102101.91;6215488;23;20008;-66
2022/10/06 00:07:49;;;;;;;9.98;2.10;;;;;;;13.87;77.95;102102.72;6215889;23;20009;-67
2022/10/06 00:10:15;;;;;;;9.48;2.20;;;;;;;13.82;78.04;102109.72;6215865;23;20009;-66
2022/10/06 00:12:42;;;;;;;9.63;2.47;;;;;;;13.81;77.95;102117.69;6215481;23;20063;-67
2022/10/06 00:15:10;;;;;;;9.32;2.03;;;;;;;13.77;77.89;102120.28;6215429;23;20083;-66
2022/10/06 00:17:35;;;;;;;8.30;1.95;;;;;;;13.76;78.15;102121.16;6215554;23;20084;-66
2022/10/06 00:20:01;;;;;;;8.30;1.88;;;;;;;13.75;77.92;102129.09;6215847;23;20387;-66
2022/10/06 00:22:39;;;;;;;12.23;2.40;;;;;;;13.71;78.07;102130.81;6215490;23;20458;-66
2022/10/06 00:25:05;;;;;;;15.38;2.13;;;;;;;13.69;78.06;102136.94;6215558;23;20059;-66
2022/10/06 00:27:37;;;;;;;7.32;2.08;;;;;;;13.63;78.21;102140.38;6215771;23;20084;-66
2022/10/06 00:30:05;;;;;;;8.05;2.20;;;;;;;13.60;78.68;102148.28;6215910;23;20443;-67
2022/10/06 00:32:31;;;;;;;14.10;2.30;;;;;;;13.55;78.89;102154.38;6215188;23;20013;-67
2022/10/06 00:35:00;;;;;;;9.57;2.20;;;;;;;13.50;78.93;102151.66;6216514;23;20458;-66
2022/10/06 00:37:27;;;;;;;6.78;2.10;;;;;;;13.48;79.38;102159.56;6217540;23;20036;-66
2022/10/06 00:39:53;;;;;;;10.65;2.22;;;;;;;13.46;79.27;102158.66;6217287;23;20473;-66
2022/10/06 00:42:30;;;;;;;7.20;2.30;;;;;;;13.48;79.38;102169.28;6217212;23;20004;-66
2022/10/06 00:44:58;;;;;;;11.35;2.25;;;;;;;13.46;79.64;102177.25;6217133;23;20040;-66
2022/10/06 00:47:29;;;;;;;8.88;2.30;;;;;;;13.47;79.85;102175.47;6217192;23;20005;-66
2022/10/06 00:49:56;;;;;;;7.35;1.98;;;;;;;13.40;80.33;102177.09;6217162;23;20008;-66
2022/10/06 00:52:24;;;;;;;7.53;1.98;;;;;;;13.39;80.58;102167.34;6217098;23;20015;-67
2022/10/06 00:54:50;;;;;;;6.07;2.00;;;;;;;13.38;80.57;102176.19;6217430;23;20009;-67
2022/10/06 00:57:18;;;;;;;6.55;1.90;;;;;;;13.39;80.54;102179.72;6217056;23;20008;-66
2022/10/06 00:59:45;;;;;;;7.93;2.17;;;;;;;13.39;80.48;102185.03;6217352;23;20027;-66
2022/10/06 01:02:26;;;;;;;11.23;2.42;;;;;;;13.40;80.28;102185.06;6216841;23;20542;-66
2022/10/06 01:04:59;;;;;;;14.13;2.35;;;;;;;13.39;80.07;102188.59;6217004;23;20088;-66
2022/10/06 01:07:27;;;;;;;10.02;2.00;;;;;;;13.38;79.89;102186.81;6216985;23;20004;-66
2022/10/06 01:09:54;;;;;;;6.63;2.20;;;;;;;13.38;79.29;102194.75;6216790;23;20009;-66
2022/10/06 01:12:20;;;;;;;10.70;2.20;;;;;;;13.38;79.45;102204.50;6216947;23;20087;-66
2022/10/06 01:14:47;;;;;;;13.95;2.60;;;;;;;13.33;79.37;102203.50;6216846;23;20040;-66
2022/10/06 01:17:27;;;;;;;9.52;2.15;;;;;;;13.31;79.28;102206.09;6233232;22;20567;-61
2022/10/06 01:20:04;;;;;;;10.25;2.30;;;;;;;13.26;79.25;102211.31;6247258;23;20000;-61
2022/10/06 01:22:40;;;;;;;9.80;2.05;;;;;;;13.26;79.40;102221.06;6220458;23;20103;-61
2022/10/06 01:25:07;;;;;;;11.55;2.45;;;;;;;13.22;78.95;102228.03;6247426;23;20004;-61
2022/10/06 01:27:36;;;;;;;9.98;2.15;;;;;;;13.24;78.83;102229.00;6247025;23;20076;-63
2022/10/06 01:30:03;;;;;;;11.38;2.40;;;;;;;13.23;78.49;102236.91;6247101;23;20000;-61
2022/10/06 01:32:35;;;;;;;9.65;2.20;;;;;;;13.19;78.82;102235.94;6219923;23;20319;-62
2022/10/06 01:35:00;;;;;;;8.93;2.10;;;;;;;13.17;78.61;102242.94;6247054;23;20016;-62
2022/10/06 01:37:26;;;;;;;10.60;2.10;;;;;;;13.20;78.30;102244.78;6247023;23;20441;-62
2022/10/06 01:39:51;;;;;;;8.20;2.40;;;;;;;13.16;78.28;102257.09;6247201;23;20000;-62
2022/10/06 01:42:17;;;;;;;9.18;2.20;;;;;;;13.14;78.10;102260.56;6247309;23;20004;-63
2022/10/06 01:44:42;;;;;;;7.68;2.08;;;;;;;13.11;78.39;102256.09;6246816;23;20319;-63
2022/10/06 01:47:08;;;;;;;11.48;2.38;;;;;;;13.12;78.06;102257.88;6246639;23;20011;-62
2022/10/06 01:49:34;;;;;;;15.10;2.60;;;;;;;13.08;78.22;102260.44;6246985;23;20325;-63
2022/10/06 01:52:00;;;;;;;9.65;2.22;;;;;;;13.09;78.72;102267.53;6247223;23;20008;-62
2022/10/06 01:54:25;;;;;;;15.90;2.40;;;;;;;13.02;78.73;102272.69;6247202;23;20421;-63
2022/10/06 01:56:51;;;;;;;10.27;2.42;;;;;;;13.05;78.20;102269.19;6246754;23;20004;-62
2022/10/06 01:59:16;;;;;;;7.38;2.20;;;;;;;12.98;78.44;102286.75;6220002;23;20008;-63
2022/10/06 02:01:42;;;;;;;13.10;2.40;;;;;;;12.96;78.26;102277.84;6247157;23;20087;-62
2022/10/06 02:04:07;;;;;;;8.10;2.20;;;;;;;12.95;78.20;102275.16;6246450;23;20430;-62
2022/10/06 02:06:32;;;;;;;10.45;2.47;;;;;;;12.94;78.49;102268.06;6246770;23;20330;-62
2022/10/06 02:08:59;;;;;;;10.90;2.45;;;;;;;12.90;78.54;102279.47;6246758;23;20083;-62
2022/10/06 02:11:25;;;;;;;7.20;2.40;;;;;;;12.90;77.92;102285.66;6247034;23;20000;-62
2022/10/06 02:13:51;;;;;;;14.52;2.58;;;;;;;12.86;78.20;102282.91;6246761;23;20039;-63
2022/10/06 02:16:16;;;;;;;14.57;2.47;;;;;;;12.84;78.19;102284.59;6246435;23;20012;-62
2022/10/06 02:18:42;;;;;;;9.07;2.30;;;;;;;12.86;78.07;102291.75;6220014;23;20074;-62
2022/10/06 02:21:20;;;;;;;7.90;2.50;;;;;;;12.85;77.91;102294.34;6219789;23;20460;-62
2022/10/06 02:23:45;;;;;;;11.27;2.47;;;;;;;12.81;77.52;102300.47;6246518;23;20319;-62
2022/10/06 02:26:11;;;;;;;7.78;2.10;;;;;;;12.79;77.58;102308.38;6246688;23;20028;-62
2022/10/06 02:28:37;;;;;;;10.23;2.63;;;;;;;12.72;77.92;102311.75;6246738;23;20031;-62
2022/10/06 02:31:07;;;;;;;9.60;2.38;;;;;;;12.70;77.80;102321.41;6220244;23;20043;-62
2022/10/06 02:33:34;;;;;;;16.20;2.70;;;;;;;12.66;78.00;102322.19;6246231;23;20015;-62
2022/10/06 02:36:01;;;;;;;13.23;3.55;;;;;;;12.64;77.87;102322.16;6246532;23;20004;-63
2022/10/06 02:38:27;;;;;;;14.52;2.40;;;;;;;12.60;78.10;102324.69;6219873;23;20071;-63
2022/10/06 02:40:53;;;;;;;11.63;2.45;;;;;;;12.59;78.03;102321.13;6246416;23;20004;-63
2022/10/06 02:43:22;;;;;;;10.27;2.50;;;;;;;12.55;78.31;102327.22;6246384;23;20008;-63
2022/10/06 02:45:58;;;;;;;8.18;2.17;;;;;;;12.54;78.56;102336.91;6246439;23;20008;-63
2022/10/06 02:48:25;;;;;;;11.77;2.70;;;;;;;12.51;78.61;102342.16;6246651;23;20000;-63
2022/10/06 02:51:02;;;;;;;13.80;2.60;;;;;;;12.49;78.64;102343.84;6246449;23;20307;-63
2022/10/06 02:53:28;;;;;;;12.82;2.50;;;;;;;12.48;78.80;102346.47;6246414;23;20011;-63
2022/10/06 02:56:05;;;;;;;7.55;2.10;;;;;;;12.45;78.85;102352.56;6246301;23;20027;-63
2022/10/06 02:58:31;;;;;;;10.57;2.53;;;;;;;12.41;79.02;102353.34;6246160;23;20011;-63
2022/10/06 03:01:08;;;;;;;14.32;2.60;;;;;;;12.41;79.28;102350.69;6246071;23;20004;-63
2022/10/06 03:03:34;;;;;;;15.55;2.80;;;;;;;12.35;79.05;102354.94;6245967;23;20011;-63
2022/10/06 03:06:04;;;;;;;12.75;2.50;;;;;;;12.32;79.70;102366.34;6246531;23;20019;-62
2022/10/06 03:08:29;;;;;;;8.63;2.10;;;;;;;12.33;79.44;102373.44;6246187;23;20031;-63
2022/10/06 03:11:02;;;;;;;15.15;2.70;;;;;;;12.34;79.59;102375.25;6246162;23;20354;-63
2022/10/06 03:13:29;;;;;;;11.90;2.35;;;;;;;12.27;79.92;102376.81;6246230;23;20000;-62
2022/10/06 03:15:55;;;;;;;10.13;2.08;;;;;;;12.25;80.02;102377.66;6245861;23;20012;-63
2022/10/06 03:18:21;;;;;;;9.45;2.30;;;;;;;12.18;80.11;102387.16;6246557;23;20013;-63
2022/10/06 03:20:46;;;;;;;11.05;2.67;;;;;;;12.15;80.68;102392.34;6246442;23;20028;-62
2022/10/06 03:23:12;;;;;;;13.75;2.35;;;;;;;12.12;80.29;102386.06;6246085;23;20437;-63
2022/10/06 03:25:37;;;;;;;12.13;2.50;;;;;;;12.11;80.47;102393.13;6219239;23;20307;-63
2022/10/06 03:28:03;;;;;;;14.18;2.60;;;;;;;12.03;81.04;102397.28;6246075;23;20004;-63
2022/10/06 03:30:28;;;;;;;12.43;2.63;;;;;;;12.02;81.18;102400.81;6246380;23;20008;-62
2022/10/06 03:32:53;;;;;;;12.63;2.67;;;;;;;12.00;80.94;102406.06;6245777;23;20004;-63
2022/10/06 03:35:19;;;;;;;11.73;2.30;;;;;;;11.98;81.13;102415.72;6245981;23;20063;-63
2022/10/06 03:37:44;;;;;;;11.57;2.55;;;;;;;12.00;81.24;102418.44;6246071;23;20043;-62
2022/10/06 03:40:09;;;;;;;9.75;2.40;;;;;;;12.01;81.09;102406.97;6246297;23;20031;-62
2022/10/06 03:42:35;;;;;;;12.02;2.65;;;;;;;11.97;81.04;102426.28;6246293;23;20059;-63
2022/10/06 03:45:00;;;;;;;10.50;2.55;;;;;;;11.95;81.22;102428.00;6245857;23;20303;-63
2022/10/06 03:47:28;;;;;;;14.73;2.95;;;;;;;11.95;80.98;102434.19;6219609;23;20011;-63
2022/10/06 03:49:54;;;;;;;11.38;2.33;;;;;;;11.93;81.08;102429.69;6245955;23;20414;-63
2022/10/06 03:52:19;;;;;;;12.45;2.45;;;;;;;11.89;81.57;102436.63;6246082;23;20091;-63
2022/10/06 03:54:44;;;;;;;16.02;2.60;;;;;;;11.83;81.53;102436.44;6245985;23;20015;-62
2022/10/06 03:57:10;;;;;;;13.95;2.60;;;;;;;11.79;81.87;102447.75;6245937;23;20334;-63
2022/10/06 03:59:35;;;;;;;7.65;2.60;;;;;;;11.77;81.90;102450.34;6246207;23;20039;-63
2022/10/06 04:02:01;;;;;;;11.80;2.55;;;;;;;11.73;81.55;102450.19;6246217;23;20051;-63
2022/10/06 04:04:27;;;;;;;14.63;2.60;;;;;;;11.69;81.79;102457.19;6245610;23;20091;-63
2022/10/06 04:06:53;;;;;;;15.10;3.13;;;;;;;11.67;82.18;102460.59;6245828;23;20036;-63
2022/10/06 04:09:18;;;;;;;15.57;2.83;;;;;;;11.68;82.24;102467.69;6247145;23;20005;-63
2022/10/06 04:11:44;;;;;;;9.05;2.10;;;;;;;11.63;81.85;102464.91;6221081;23;20004;-63
2022/10/06 04:14:12;;;;;;;18.73;2.80;;;;;;;11.62;81.63;102478.09;6247738;23;20016;-63
2022/10/06 04:16:40;;;;;;;12.90;2.85;;;;;;;11.61;81.50;102482.50;6247618;23;20012;-63
2022/10/06 04:19:08;;;;;;;14.95;2.95;;;;;;;11.54;82.32;102485.78;6247849;23;20005;-62
2022/10/06 04:21:36;;;;;;;11.23;2.53;;;;;;;11.56;81.86;102483.19;6247715;23;20008;-63
2022/10/06 04:24:02;;;;;;;11.95;2.97;;;;;;;11.53;81.87;102491.94;6247668;23;20004;-64
2022/10/06 04:26:31;;;;;;;14.68;2.92;;;;;;;11.49;81.68;102498.88;6247712;23;20004;-63
2022/10/06 04:28:56;;;;;;;10.70;2.40;;;;;;;11.49;81.88;102498.88;6247722;23;20004;-63
2022/10/06 04:31:26;;;;;;;9.63;2.35;;;;;;;11.52;81.75;102500.72;6247863;23;20031;-63
2022/10/06 04:33:56;;;;;;;9.80;2.65;;;;;;;11.53;81.47;102506.06;6247297;23;20488;-63
2022/10/06 04:36:31;;;;;;;13.80;2.75;;;;;;;11.50;81.66;102505.97;6247626;23;20012;-62
2022/10/06 04:38:58;;;;;;;11.45;2.80;;;;;;;11.45;81.17;102499.63;6247596;23;20423;-62
2022/10/06 04:41:30;;;;;;;16.00;3.08;;;;;;;11.46;81.22;102509.34;6247495;23;20010;-62
2022/10/06 04:43:56;;;;;;;11.00;2.70;;;;;;;11.43;81.16;102511.88;6247495;23;20011;-62
2022/10/06 04:46:23;;;;;;;15.80;2.92;;;;;;;11.42;81.28;102515.38;6220800;23;20008;-62
2022/10/06 04:48:52;;;;;;;12.50;2.90;;;;;;;11.36;81.56;102517.84;6247476;23;20000;-62
2022/10/06 04:51:19;;;;;;;15.52;2.78;;;;;;;11.33;81.67;102516.81;6247558;23;20011;-62
2022/10/06 04:53:45;;;;;;;14.25;3.00;;;;;;;11.29;82.18;102527.28;6220611;23;20078;-62
2022/10/06 04:56:16;;;;;;;11.07;2.90;;;;;;;11.27;81.70;102522.81;6247406;23;20058;-62
2022/10/06 04:58:43;;;;;;;13.00;2.80;;;;;;;11.21;82.03;102531.41;6247384;23;20022;-62
2022/10/06 05:01:17;;;;;;;14.52;2.65;;;;;;;11.19;81.75;102537.53;6247697;23;20329;-62
2022/10/06 05:03:44;;;;;;;13.32;2.97;;;;;;;11.13;82.05;102535.53;6220178;23;20398;-63
2022/10/06 05:06:15;;;;;;;13.07;2.78;;;;;;;11.13;82.19;102543.47;6247433;23;20008;-64
2022/10/06 05:08:42;;;;;;;13.57;2.88;;;;;;;11.09;81.91;102549.53;6247325;23;20004;-62
2022/10/06 05:11:10;;;;;;;10.23;2.50;;;;;;;11.11;82.70;102557.50;6247274;23;20039;-61
2022/10/06 05:13:36;;;;;;;19.02;3.20;;;;;;;11.06;82.65;102567.03;6247260;23;20095;-62
2022/10/06 05:16:04;;;;;;;15.23;3.00;;;;;;;10.99;82.50;102569.44;6247248;23;20009;-62
2022/10/06 05:18:30;;;;;;;11.32;2.70;;;;;;;10.95;82.49;102570.16;6247518;23;20015;-62
2022/10/06 05:21:02;;;;;;;11.65;3.20;;;;;;;10.91;82.63;102570.00;6246774;23;20082;-61
2022/10/06 05:23:29;;;;;;;13.88;3.00;;;;;;;10.86;82.55;102576.88;6247004;23;20004;-62
2022/10/06 05:25:56;;;;;;;12.57;2.47;;;;;;;10.81;82.67;102581.09;6247109;23;20031;-61
2022/10/06 05:28:23;;;;;;;12.73;2.60;;;;;;;10.77;83.14;102588.00;6247448;23;20083;-62
2022/10/06 05:31:05;;;;;;;17.95;3.13;;;;;;;10.78;83.14;102589.78;6247485;23;20012;-62
2022/10/06 05:33:33;;;;;;;14.50;3.03;;;;;;;10.77;83.02;102588.00;6247061;23;20337;-62
2022/10/06 05:36:01;;;;;;;18.80;3.08;;;;;;;10.75;82.99;102587.97;6247103;23;20414;-63
2022/10/06 05:38:28;;;;;;;14.38;2.80;;;;;;;10.74;82.48;102601.09;6246973;23;20007;-62
2022/10/06 05:41:04;;;;;;;14.32;3.33;;;;;;;10.74;82.78;102596.69;6245354;23;20012;-62
2022/10/06 05:43:30;;;;;;;12.38;2.75;;;;;;;10.67;83.19;102610.56;6247004;23;20011;-62
2022/10/06 05:45:58;;;;;;;12.55;2.80;;;;;;;10.60;82.78;102616.44;6246921;23;20000;-63
2022/10/06 05:48:24;;;;;;;15.07;3.10;;;;;;;10.59;83.22;102612.00;6246982;23;20004;-63
2022/10/06 05:51:04;;;;;;;16.77;3.20;;;;;;;10.59;83.56;102619.94;6247091;23;20438;-62
2022/10/06 05:53:32;;;;;;;20.05;3.38;;;;;;;10.57;83.24;102623.34;6247272;23;20047;-62
2022/10/06 05:56:09;;;;;;;17.20;3.40;;;;;;;10.58;83.03;102625.13;6247183;23;20007;-63
2022/10/06 05:58:37;;;;;;;17.98;3.15;;;;;;;10.58;83.48;102625.13;6246807;23;20008;-63
2022/10/06 06:01:06;;;;;;;22.17;3.20;;;;;;;10.58;83.14;102626.06;6247161;23;20010;-62
2022/10/06 06:03:32;;;;;;;17.23;3.47;;;;;;;10.65;82.57;102624.53;6246474;23;20008;-62
2022/10/06 06:05:57;;;;;;;16.67;3.30;;;;;;;10.67;82.86;102630.81;6247080;23;20123;-63
2022/10/06 06:08:22;;;;;;;15.18;2.95;;;;;;;10.66;82.66;102635.19;6246743;23;20015;-62
2022/10/06 06:10:48;;;;;;;12.50;3.30;;;;;;;10.67;82.69;102657.25;6246762;23;20015;-63
2022/10/06 06:13:21;;;;;;;15.18;3.33;;;;;;;10.68;82.54;102657.28;6246740;23;20011;-63
2022/10/06 06:15:59;;;;;;;22.65;3.50;;;;;;;10.68;82.50;102651.09;6246943;23;20070;-63
2022/10/06 06:18:24;;;;;;;16.85;3.08;;;;;;;10.69;83.21;102656.44;6246599;23;20066;-62
2022/10/06 06:20:58;;;;;;;18.67;3.83;;;;;;;10.72;82.69;102653.94;6246791;23;20007;-63
2022/10/06 06:23:24;;;;;;;17.13;3.40;;;;;;;10.78;82.46;102663.84;6219615;23;20322;-63
2022/10/06 06:26:00;;;;;;;10.48;2.88;;;;;;;10.80;82.67;102659.53;6246927;23;20012;-62
2022/10/06 06:28:28;;;;;;;14.98;3.50;;;;;;;10.92;82.14;102665.28;6246582;23;20099;-63
2022/10/06 06:31:01;;;;;;;14.10;2.85;;;;;;;11.01;81.62;102668.28;6246511;23;20015;-63
2022/10/06 06:33:27;;;;;;;14.90;3.00;;;;;;;11.14;81.11;102672.28;6246235;23;20004;-63
2022/10/06 06:35:52;;;;;;;15.90;3.45;;;;;;;11.23;80.81;102677.03;6246572;23;20008;-62
2022/10/06 06:38:18;;;;;;;13.27;3.20;;;;;;;11.37;80.74;102673.13;6246725;23;20026;-62
2022/10/06 06:40:43;;;;;;;16.00;3.30;;;;;;;11.46;79.67;102684.06;6246398;23;20012;-63
2022/10/06 06:43:11;;;;;;;17.30;3.10;;;;;;;11.59;79.89;102688.06;6246318;23;20062;-63
2022/10/06 06:45:36;;;;;;;15.30;3.28;;;;;;;11.74;79.34;102691.25;6246637;23;20092;-63
2022/10/06 06:48:03;;;;;;;17.38;3.28;;;;;;;11.87;78.49;102689.09;6246686;23;20383;-64
2022/10/06 06:50:28;;;;;;;19.25;3.72;;;;;;;11.92;77.61;102690.13;6246234;23;20435;-63
2022/10/06 06:52:53;;;;;;;19.23;3.28;;;;;;;12.03;77.93;102696.69;6219579;23;20016;-62
2022/10/06 06:55:19;;;;;;;19.40;3.25;;;;;;;12.12;77.88;102701.41;6246296;23;20004;-62
2022/10/06 06:57:45;;;;;;;17.15;3.35;;;;;;;12.24;76.67;102704.47;6246484;23;20015;-63
2022/10/06 07:00:11;;;;;;;23.27;3.45;;;;;;;12.28;76.65;102706.38;6246558;23;20010;-62
2022/10/06 07:02:37;;;;;;;14.60;3.13;;;;;;;12.37;76.42;102698.72;6246022;23;20410;-62
2022/10/06 07:05:03;;;;;;;17.95;3.50;;;;;;;12.51;75.78;102713.38;6246104;23;20050;-63
2022/10/06 07:07:28;;;;;;;22.65;3.45;;;;;;;12.56;75.09;102715.25;6246155;23;20015;-62
2022/10/06 07:09:54;;;;;;;14.40;3.10;;;;;;;12.70;75.68;102722.81;6246168;23;20004;-62
2022/10/06 07:12:19;;;;;;;20.35;3.78;;;;;;;12.79;74.67;102725.75;6246150;23;20012;-62
2022/10/06 07:26:02;;;;;;;20.67;3.35;;;;;;;13.30;72.98;102743.28;6241566;23;20069;-62
2022/10/06 07:28:30;;;;;;;14.00;3.33;;;;;;;13.39;72.27;102754.16;6246126;23;20109;-63
2022/10/06 07:30:59;;;;;;;17.67;3.58;;;;;;;13.61;72.30;102745.06;6246122;23;20083;-63
2022/10/06 07:33:27;;;;;;;20.92;3.72;;;;;;;13.74;71.67;102754.28;6246031;23;20426;-62
2022/10/06 07:35:53;;;;;;;21.02;3.72;;;;;;;13.88;71.12;102765.31;6246284;23;20023;-62
2022/10/06 07:38:24;;;;;;;15.63;3.53;;;;;;;14.03;70.60;102768.38;6245859;23;20005;-62
2022/10/06 07:40:54;;;;;;;19.92;3.47;;;;;;;14.17;70.45;102771.41;6246132;23;20004;-62
2022/10/06 07:43:19;;;;;;;13.80;3.13;;;;;;;14.38;69.88;102771.97;6246345;23;20015;-63
2022/10/06 07:45:45;;;;;;;18.10;3.25;;;;;;;14.60;69.24;102776.09;6248104;23;20008;-63
2022/10/06 07:48:14;;;;;;;11.02;2.97;;;;;;;14.82;68.66;102781.97;6248032;23;20011;-63
2022/10/06 07:50:42;;;;;;;18.40;3.70;;;;;;;14.92;67.06;102784.00;6248045;23;20000;-63
2022/10/06 07:53:08;;;;;;;19.33;3.65;;;;;;;15.13;67.23;102791.59;6248152;23;20019;-62
2022/10/06 07:55:40;;;;;;;14.80;3.70;;;;;;;15.35;66.70;102784.97;6247987;23;20384;-62
2022/10/06 07:58:16;;;;;;;;;;;;;;;15.53;68.40;102799.59;6248599;23;20014;-63
2022/10/06 08:00:43;;;;;;;14.35;3.65;;;;;;;15.59;64.91;102798.84;6247926;23;19904;-62
2022/10/06 08:03:10;;;;;;;13.20;3.58;;;;;;;15.56;64.60;102798.78;6247656;23;20008;-62
2022/10/06 08:05:35;;;;;;;16.73;3.40;;;;;;;15.60;64.89;102797.97;6247903;23;20057;-62
2022/10/06 08:08:01;;;;;;;17.80;3.42;;;;;;;15.68;65.08;102809.72;6248176;23;20039;-62
2022/10/06 08:10:26;;;;;;;18.00;3.20;;;;;;;15.93;64.30;102799.56;6248265;23;20012;-62
2022/10/06 08:12:52;;;;;;;17.33;3.83;;;;;;;16.11;64.32;102802.59;6247851;23;20422;-62
2022/10/06 08:15:18;;;;;;;18.65;3.33;;;;;;;16.38;63.89;102795.97;6247848;23;20019;-62
2022/10/06 08:17:43;;;;;;;17.98;3.20;;;;;;;16.56;62.20;102814.06;6247661;23;20012;-62
2022/10/06 08:20:10;;;;;;;20.20;3.60;;;;;;;16.72;62.08;102808.13;6247819;23;20004;-62
2022/10/06 08:22:38;;;;;;;17.33;3.55;;;;;;;16.76;61.67;102818.91;6247795;23;20011;-62
2022/10/06 08:25:05;;;;;;;17.63;3.47;;;;;;;17.09;61.65;102823.03;6247727;23;20050;-62
2022/10/06 08:27:31;;;;;;;15.98;3.33;;;;;;;17.44;60.40;102825.31;6247948;23;20008;-63
2022/10/06 08:29:58;;;;;;;14.82;3.40;;;;;;;17.52;59.65;102820.97;6248081;23;20152;-62
2022/10/06 08:32:24;;;;;;;16.23;3.45;;;;;;;17.59;58.17;102836.19;6247756;23;20008;-62
2022/10/06 08:34:49;;;;;;;14.00;3.35;;;;;;;17.77;57.96;102832.91;6247712;23;20225;-62
2022/10/06 08:37:22;;;;;;;16.30;3.28;;;;;;;17.89;57.51;102832.16;6247666;23;20330;-62
2022/10/06 08:39:49;;;;;;;18.45;3.40;;;;;;;18.07;57.70;102837.72;6247946;23;20069;-62
2022/10/06 08:42:24;;;;;;;17.52;3.45;;;;;;;18.19;57.11;102847.66;6247543;23;20039;-62
2022/10/06 08:44:56;;;;;;;14.60;3.50;;;;;;;18.26;55.99;102853.13;6247871;23;20008;-62
2022/10/06 08:47:23;;;;;;;13.20;2.97;;;;;;;18.30;56.41;102846.03;6248006;23;20015;-62
2022/10/06 08:49:55;;;;;;;22.58;3.70;;;;;;;18.21;56.54;102844.16;6247825;23;20020;-62
2022/10/06 08:52:50;;;;;;;12.85;3.47;;;;;;;18.32;57.52;102843.34;6247638;23;20087;-62
2022/10/06 08:55:24;;;;;;;17.83;3.88;;;;;;;18.70;56.00;102857.16;6247562;23;20004;-62
2022/10/06 08:58:09;;;;;;;10.52;2.92;;;;;;;18.99;55.30;102857.41;6247800;23;20005;-62
2022/10/06 09:00:36;;;;;;;16.73;3.15;;;;;;;19.22;53.60;102854.91;6247807;23;20007;-62
2022/10/06 09:03:02;;;;;;;14.23;3.42;;;;;;;19.33;52.83;102863.03;6247323;23;20061;-63
2022/10/06 09:05:30;;;;;;;17.45;3.40;;;;;;;19.52;53.74;102867.59;6247486;23;20007;-62
2022/10/06 09:08:15;;;;;;;14.18;3.60;;;;;;;19.30;53.32;102882.66;6247530;23;20004;-62
2022/10/06 09:10:51;;;;;;;15.50;3.17;;;;;;;19.37;52.39;102872.88;6220510;23;20495;-62
2022/10/06 09:13:23;;;;;;;18.98;3.72;;;;;;;19.56;52.16;102873.88;6247431;23;20050;-62
2022/10/06 09:16:06;;;;;;;10.82;3.28;;;;;;;19.60;52.05;102891.78;6247383;23;20004;-62
2022/10/06 09:18:39;;;;;;;14.82;3.00;;;;;;;19.62;51.13;102887.38;6247580;23;20008;-61
2022/10/06 09:21:24;;;;;;;13.00;3.38;;;;;;;19.96;52.36;102888.44;6221313;23;20066;-62
2022/10/06 09:23:55;;;;;;;12.55;3.20;;;;;;;19.84;49.73;102891.97;6247194;23;20001;-62
2022/10/06 09:26:23;;;;;;;16.67;3.30;;;;;;;19.90;49.97;102891.97;6247611;23;20008;-62
2022/10/06 09:28:50;;;;;;;14.85;3.75;;;;;;;19.87;50.15;102889.31;6247138;23;20007;-62
2022/10/06 09:31:27;;;;;;;15.88;3.40;;;;;;;20.39;50.16;102893.97;6247210;23;20008;-62
2022/10/06 09:33:58;;;;;;;14.15;3.13;;;;;;;20.83;49.14;102898.56;6246938;23;20012;-62
2022/10/06 09:36:24;;;;;;;17.33;3.60;;;;;;;20.59;47.72;102896.72;6247087;23;20004;-61
2022/10/06 09:38:55;;;;;;;14.45;3.40;;;;;;;20.78;48.27;102901.25;6247089;23;20033;-62
2022/10/06 09:41:49;;;;;;;13.18;3.05;;;;;;;21.19;50.47;102894.97;6247038;23;20019;-62
2022/10/06 09:44:28;;;;;;;14.00;3.15;;;;;;;21.10;47.64;102903.94;6214855;23;20422;-61
2022/10/06 09:46:54;;;;;;;13.25;3.25;;;;;;;21.36;47.81;102905.75;6246859;23;20000;-61
2022/10/06 09:49:24;;;;;;;18.67;3.38;;;;;;;21.40;46.86;102908.41;6246961;23;20035;-62
2022/10/06 09:51:58;;;;;;;13.90;3.42;;;;;;;21.62;46.58;102914.66;6247265;23;20004;-61
2022/10/06 09:54:24;;;;;;;16.55;3.42;;;;;;;21.40;46.96;102904.84;6246982;23;20008;-62
2022/10/06 09:56:52;;;;;;;12.70;3.40;;;;;;;21.38;46.52;102909.34;6246823;23;20008;-61
2022/10/06 09:59:20;;;;;;;14.98;3.17;;;;;;;21.38;46.96;102907.53;6247116;23;20004;-61
2022/10/06 10:01:56;;;;;;;14.85;3.17;;;;;;;21.34;46.91;102902.16;6246819;23;20043;-62
2022/10/06 10:04:39;;;;;;;15.18;3.22;;;;;;;21.61;46.91;102904.81;6246333;23;20426;-62
2022/10/06 10:07:26;;;;;;;12.02;2.80;;;;;;;21.63;46.43;102900.31;6246655;23;20007;-61
2022/10/06 10:10:17;;;;;;;12.75;3.03;;;;;;;21.61;45.95;102899.41;6246861;23;20007;-60
2022/10/06 10:12:53;;;;;;;11.25;3.10;;;;;;;21.63;45.75;102903.03;6246723;23;20004;-60
2022/10/06 10:15:19;;;;;;;15.60;3.28;;;;;;;21.78;45.10;102904.75;6247000;23;20004;-59
2022/10/06 10:17:49;;;;;;;12.77;3.05;;;;;;;21.79;45.46;102913.72;6246659;23;20012;-62
2022/10/06 10:20:23;;;;;;;17.70;3.33;;;;;;;21.88;45.74;102906.50;6246709;23;20028;-62
2022/10/06 10:22:51;;;;;;;12.30;3.00;;;;;;;21.78;43.08;102903.88;6247088;23;20040;-62
2022/10/06 10:25:32;;;;;;;13.32;2.67;;;;;;;21.78;44.91;102917.31;6246531;23;20004;-60
2022/10/06 10:28:23;;;;;;;14.90;3.10;;;;;;;21.92;43.47;102910.97;6246902;23;20075;-60
2022/10/06 10:31:20;;;;;;;14.97;2.97;;;;;;;22.16;45.19;102909.16;6245772;23;20019;-60
2022/10/06 10:34:07;;;;;;;14.77;3.13;;;;;;;22.21;44.13;102912.69;6246524;23;20004;-60
2022/10/06 10:36:42;;;;;;;10.30;2.70;;;;;;;22.40;42.87;102908.13;6246728;23;20079;-60
2022/10/06 10:39:14;;;;;;;10.32;3.17;;;;;;;22.17;41.89;102913.63;6246589;23;20004;-60
2022/10/06 10:41:48;;;;;;;;;;;;;;;22.44;45.16;102909.88;6247297;23;20092;-60
2022/10/06 10:44:28;;;;;;;14.15;2.60;;;;;;;22.58;41.68;102923.28;6246536;23;20233;-60
2022/10/06 10:47:10;;;;;;;9.07;2.72;;;;;;;22.55;41.38;102908.03;6246702;23;20049;-60
2022/10/06 10:49:37;;;;;;;11.63;2.92;;;;;;;22.71;40.84;102915.13;6246823;23;20031;-60
2022/10/06 10:52:19;;;;;;;10.55;3.03;;;;;;;22.43;40.52;102916.19;6246521;23;20005;-60
2022/10/06 10:54:47;;;;;;;9.15;2.63;;;;;;;22.40;39.76;102913.53;6246392;23;20011;-60
2022/10/06 10:57:16;;;;;;;15.07;2.92;;;;;;;22.46;40.15;102917.06;6246286;23;20000;-60
2022/10/06 10:59:59;;;;;;;9.80;2.60;;;;;;;22.53;40.43;102903.56;6246560;23;20007;-60
2022/10/06 11:02:26;;;;;;;10.98;2.90;;;;;;;22.62;39.18;102911.59;6246307;23;20426;-60
2022/10/06 11:04:56;;;;;;;9.13;2.67;;;;;;;22.81;38.27;102918.63;6246189;23;20015;-60
2022/10/06 11:07:25;;;;;;;8.48;2.60;;;;;;;23.01;39.19;102914.94;6246184;23;20012;-61
2022/10/06 11:10:14;;;;;;;14.52;2.90;;;;;;;23.13;39.08;102920.22;6246518;23;20150;-61
2022/10/06 11:12:45;;;;;;;15.00;3.25;;;;;;;23.07;38.04;102923.84;6246281;23;20007;-61
2022/10/06 11:15:23;;;;;;;10.57;3.10;;;;;;;23.13;38.59;102918.44;6246222;23;20004;-61
2022/10/06 11:17:49;;;;;;;15.38;3.08;;;;;;;23.03;37.31;102919.38;6245885;23;20008;-61
2022/10/06 11:20:42;;;;;;;12.23;2.85;;;;;;;23.08;39.40;102924.75;6246206;23;20339;-61
2022/10/06 11:23:36;;;;;;;13.32;2.70;;;;;;;22.91;39.53;102924.88;6246121;23;20003;-61
2022/10/06 11:26:35;;;;;;;10.93;2.90;;;;;;;22.79;39.27;102919.56;6246456;23;20071;-61
2022/10/06 11:29:27;;;;;;;9.77;3.00;;;;;;;22.66;39.51;102921.44;6246076;23;20004;-60
2022/10/06 11:32:11;;;;;;;9.77;3.00;;;;;;;22.33;39.44;102933.31;6219393;23;20004;-61
2022/10/06 11:34:37;;;;;;;12.65;3.10;;;;;;;22.21;39.97;102918.97;6245794;23;20000;-60
2022/10/06 11:37:28;;;;;;;11.23;3.00;;;;;;;22.25;40.01;102909.09;6219370;23;20053;-61
2022/10/06 11:40:14;;;;;;;12.82;3.05;;;;;;;22.48;39.78;102917.97;6244851;23;20012;-60
2022/10/06 11:42:57;;;;;;;8.90;2.88;;;;;;;22.66;37.71;102910.66;6246039;23;20054;-60